Time;durP1;ratioP1;P1;durP2;ratioP2;P2;SDS_P1;SDS_P2;PMS_P1;PMS_P2;Temp;Humidity;BMP_temperature;BMP_pressure;BME280_temperature;BME280_humidity;BME280_pressure;Samples;Min_cycle;Max_cycle;Signal;HPM_P1;HPM_P2
2022/08/24 00:01:33;;;;;;;3.47;3.00;;;24.40;47.60;;;-142.21;43.95;112049.66;5051841;28;20631;-70
2022/08/24 00:04:00;;;;;;;3.80;2.90;;;24.30;47.60;;;-142.21;44.19;112049.66;5051314;28;20614;-73
2022/08/24 00:06:28;;;;;;;3.53;3.17;;;24.30;47.80;;;-142.21;44.98;112049.66;5051780;28;20545;-71
2022/08/24 00:08:58;;;;;;;4.77;3.57;;;24.20;48.20;;;-142.21;45.15;112049.66;5051457;28;20290;-72
2022/08/24 00:11:27;;;;;;;4.80;3.67;;;24.20;48.20;;;-142.21;45.63;112049.66;5052142;28;20209;-72
2022/08/24 00:13:56;;;;;;;5.97;3.77;;;24.20;48.60;;;-142.21;45.81;112049.66;5050989;28;20800;-72
2022/08/24 00:16:24;;;;;;;4.93;3.47;;;24.10;48.50;;;-142.21;45.74;112049.66;5051447;28;20274;-72
2022/08/24 00:18:51;;;;;;;5.27;3.53;;;24.10;48.50;;;-142.21;45.98;112049.66;5051176;28;20205;-72
2022/08/24 00:21:19;;;;;;;5.17;3.60;;;24.10;48.50;;;-142.21;46.21;112049.66;5051580;28;20319;-73
2022/08/24 00:23:48;;;;;;;5.07;3.67;;;24.10;48.70;;;-142.21;46.46;112049.66;5051528;28;20214;-72
2022/08/24 00:26:16;;;;;;;4.97;3.43;;;24.10;48.90;;;-142.21;46.79;112049.66;5051376;28;20205;-72
2022/08/24 00:28:43;;;;;;;5.03;3.70;;;24.10;49.20;;;-142.21;46.68;112049.66;5051712;28;20246;-72
2022/08/24 00:31:12;;;;;;;4.13;3.10;;;24.00;49.00;;;-142.21;47.04;112049.66;5050729;28;20620;-72
2022/08/24 00:33:40;;;;;;;4.30;3.33;;;24.00;49.00;;;-142.21;46.91;112049.66;5051740;28;20258;-72
2022/08/24 00:36:08;;;;;;;4.67;3.47;;;24.00;49.10;;;-142.21;47.21;112049.66;5050860;28;20560;-72
2022/08/24 00:38:37;;;;;;;5.10;3.57;;;23.90;49.20;;;-142.21;47.17;112049.66;5051518;28;20217;-72
2022/08/24 00:41:05;;;;;;;3.83;3.50;;;23.90;49.30;;;-142.21;47.12;112049.66;5050762;28;20231;-72
2022/08/24 00:43:33;;;;;;;5.07;3.73;;;23.90;49.20;;;-142.21;47.41;112049.66;5051300;28;20685;-72
2022/08/24 00:46:17;;;;;;;6.13;3.80;;;23.90;49.40;;;-142.21;47.78;112049.66;5050509;28;20665;-72
2022/08/24 00:48:51;;;;;;;4.90;3.53;;;23.90;49.70;;;-142.21;47.77;112049.66;5051593;28;20277;-72
2022/08/24 00:51:26;;;;;;;4.83;3.83;;;23.90;49.60;;;-142.21;47.72;112049.66;5051395;28;20231;-71
2022/08/24 00:53:58;;;;;;;4.83;3.50;;;23.80;49.50;;;-142.21;47.28;112049.66;5051008;28;20547;-71
2022/08/24 00:56:32;;;;;;;3.57;3.00;;;23.70;49.30;;;-142.21;47.04;112049.66;5052770;28;20236;-73
2022/08/24 00:59:05;;;;;;;4.07;3.27;;;23.70;49.10;;;-142.21;47.58;112049.66;5054152;28;20601;-73
2022/08/24 01:01:37;;;;;;;5.57;3.20;;;23.70;49.40;;;-142.21;47.53;112049.66;5054926;28;20297;-72
2022/08/24 01:04:09;;;;;;;4.17;3.57;;;23.70;49.40;;;-142.21;47.58;112049.66;5054141;28;20198;-72
2022/08/24 01:06:37;;;;;;;4.47;3.40;;;23.60;49.30;;;-142.21;47.76;112049.66;5054990;28;20252;-72
2022/08/24 01:09:05;;;;;;;6.37;3.23;;;23.60;49.40;;;-142.21;48.24;112049.66;5054623;28;20239;-72
2022/08/24 01:11:34;;;;;;;6.40;3.10;;;23.60;49.60;;;-142.21;48.01;112049.66;5054842;28;20236;-72
2022/08/24 01:14:04;;;;;;;6.80;3.50;;;23.50;49.50;;;-142.21;48.02;112049.66;5054162;28;20210;-72
2022/08/24 01:19:38;;;;;;;3.83;3.33;;;23.50;49.50;;;-142.21;48.03;112049.66;5053931;28;20678;-72
2022/08/24 01:22:23;;;;;;;5.73;3.40;;;23.50;49.80;;;-142.21;48.14;112049.66;5054181;28;20246;-72
2022/08/24 01:24:51;;;;;;;4.77;3.43;;;23.40;49.90;;;-142.21;48.58;112049.66;5054890;28;20232;-71
2022/08/24 01:27:19;;;;;;;3.53;2.93;;;23.40;49.80;;;-142.21;47.66;112049.66;5054478;28;20296;-72
2022/08/24 01:29:48;;;;;;;3.43;2.70;;;23.30;49.30;;;-142.21;47.62;112049.66;5054482;28;20212;-72
2022/08/24 01:32:18;;;;;;;4.80;3.27;;;23.30;49.30;;;-142.21;47.78;112049.66;5054110;28;20487;-72
2022/08/24 01:34:45;;;;;;;5.37;3.20;;;23.30;49.40;;;-142.21;47.25;112049.66;5054533;28;20210;-72
2022/08/24 01:37:13;;;;;;;5.83;3.43;;;23.30;49.20;;;-142.21;47.82;112049.66;5053943;28;20233;-72
2022/08/24 01:39:46;;;;;;;3.97;3.10;;;23.30;49.60;;;-142.21;48.74;112049.66;5054787;28;20210;-72
2022/08/24 01:42:14;;;;;;;4.70;3.60;;;23.30;49.90;;;-142.21;50.00;112049.66;5053374;28;20373;-72
2022/08/24 01:44:44;;;;;;;5.53;3.63;;;23.30;50.10;;;-142.21;50.15;112049.66;5054356;28;20211;-72
2022/08/24 01:47:15;;;;;;;3.17;2.87;;;23.30;50.30;;;-142.21;50.51;112049.66;5053679;28;20256;-72
2022/08/24 01:49:45;;;;;;;4.87;3.60;;;23.30;50.30;;;-142.21;51.02;112049.66;5054284;28;20194;-72
2022/08/24 01:52:18;;;;;;;3.43;3.00;;;23.20;50.60;;;-142.21;50.32;112049.66;5053286;28;20190;-72
2022/08/24 01:54:46;;;;;;;5.00;3.20;;;23.20;50.60;;;-142.21;51.03;112049.66;5054234;28;20531;-72
2022/08/24 01:57:15;;;;;;;3.53;3.10;;;23.20;50.50;;;-142.21;51.91;112049.66;5053397;28;20617;-72
2022/08/24 01:59:42;;;;;;;3.60;2.93;;;23.20;50.80;;;-142.21;52.26;112049.66;5053705;28;20642;-73
2022/08/24 02:02:22;;;;;;;4.73;3.00;;;23.10;50.90;;;-142.21;51.97;112049.66;5053197;28;20319;-72
2022/08/24 02:04:49;;;;;;;5.23;3.33;;;23.10;51.10;;;-142.21;52.23;112049.66;5053994;28;20221;-72
2022/08/24 02:07:18;;;;;;;3.53;2.90;;;23.10;50.90;;;-142.21;52.37;112049.66;5053274;28;20575;-72
2022/08/24 02:09:45;;;;;;;3.43;2.80;;;23.10;50.90;;;-142.21;52.38;112049.66;5053648;28;20260;-73
2022/08/24 02:12:14;;;;;;;3.97;3.20;;;23.00;50.90;;;-142.21;51.73;112049.66;5052656;28;20229;-72
2022/08/24 02:14:41;;;;;;;4.30;3.23;;;23.00;50.70;;;-142.21;50.91;112049.66;5053505;28;20206;-72
2022/08/24 02:17:10;;;;;;;3.60;3.17;;;22.90;50.40;;;-142.21;50.88;112049.66;5053061;28;20309;-72
2022/08/24 02:19:38;;;;;;;5.13;2.97;;;22.90;50.50;;;-142.21;50.81;112049.66;5053695;28;20297;-72
2022/08/24 02:22:06;;;;;;;4.00;3.20;;;22.80;50.40;;;-142.21;51.09;112049.66;5052877;28;20237;-72
2022/08/24 02:24:33;;;;;;;3.37;3.07;;;22.80;50.50;;;-142.21;51.37;112049.66;5053576;28;20206;-72
2022/08/24 02:27:01;;;;;;;3.70;2.90;;;22.70;50.60;;;-142.21;51.11;112049.66;5052475;28;20202;-72
2022/08/24 02:29:30;;;;;;;4.90;3.00;;;22.70;50.70;;;-142.21;50.92;112049.66;5053267;28;20300;-72
2022/08/24 02:31:57;;;;;;;3.50;3.07;;;22.70;50.60;;;-142.21;51.60;112049.66;5052576;28;20686;-72
2022/08/24 02:34:26;;;;;;;4.40;3.20;;;22.70;50.70;;;-142.21;52.07;112049.66;5053429;28;20297;-73
2022/08/24 02:36:53;;;;;;;3.30;3.00;;;22.70;51.10;;;-142.21;52.30;112049.66;5053549;28;20253;-72
2022/08/24 02:39:21;;;;;;;4.47;3.20;;;22.70;51.20;;;-142.21;52.59;112049.66;5052877;28;20210;-72
2022/08/24 02:41:48;;;;;;;4.00;2.77;;;22.60;51.10;;;-142.21;52.61;112049.66;5053192;28;20257;-72
2022/08/24 02:44:16;;;;;;;4.83;3.17;;;22.60;51.10;;;-142.21;53.02;112049.66;5052209;28;20241;-72
2022/08/24 02:46:44;;;;;;;3.37;3.00;;;22.60;51.20;;;-142.21;53.16;112049.66;5052991;28;20206;-71
2022/08/24 02:49:12;;;;;;;4.77;3.07;;;22.60;51.30;;;-142.21;53.18;112049.66;5052455;28;20208;-72
2022/08/24 02:51:43;;;;;;;3.90;3.30;;;22.60;51.40;;;-142.21;53.89;112049.66;5053589;28;20245;-73
2022/08/24 02:54:12;;;;;;;5.57;2.90;;;22.50;51.70;;;-142.21;53.98;112049.66;5053560;28;20225;-72
2022/08/24 02:56:39;;;;;;;6.37;3.40;;;22.50;51.70;;;-142.21;54.20;112049.66;5053305;28;20245;-72
2022/08/24 02:59:07;;;;;;;4.53;3.03;;;22.40;51.70;;;-142.21;55.11;112049.66;5053131;28;20327;-72
2022/08/24 03:01:34;;;;;;;4.57;3.37;;;22.30;51.90;;;-142.21;54.98;112049.66;5053301;28;20261;-73
2022/08/24 03:04:04;;;;;;;4.53;3.20;;;22.40;51.90;;;-142.21;55.09;112049.66;5053625;28;20279;-72
2022/08/24 03:06:32;;;;;;;4.53;3.30;;;22.30;52.00;;;-142.21;55.23;112049.66;5053908;28;20210;-72
2022/08/24 03:09:02;;;;;;;6.40;3.10;;;22.30;52.00;;;-142.21;55.58;112049.66;5059026;28;20206;-73
2022/08/24 03:11:32;;;;;;;3.40;3.03;;;22.30;52.10;;;-142.21;55.60;112049.66;5075249;28;20197;-72
2022/08/24 03:13:59;;;;;;;3.77;3.30;;;22.30;52.30;;;-142.21;55.96;112049.66;5052643;28;20186;-72
2022/08/24 03:16:27;;;;;;;3.47;3.10;;;22.20;52.20;;;-142.21;56.02;112049.66;5032364;28;20211;-73
2022/08/24 03:18:55;;;;;;;4.63;3.73;;;22.30;52.40;;;-142.21;56.46;112049.66;5031787;28;20298;-72
2022/08/24 03:21:23;;;;;;;6.53;3.43;;;22.20;52.60;;;-142.21;56.87;112049.66;5031974;28;20317;-73
2022/08/24 03:23:51;;;;;;;4.00;3.10;;;22.20;52.70;;;-142.21;56.84;112049.66;5032535;28;20210;-73
2022/08/24 03:26:19;;;;;;;5.73;3.50;;;22.20;52.70;;;-142.21;57.31;112049.66;5031615;28;20206;-72
2022/08/24 03:28:46;;;;;;;4.80;3.50;;;22.20;52.80;;;-142.21;57.37;112049.66;5031972;28;20210;-72
2022/08/24 03:31:13;;;;;;;4.03;3.47;;;22.10;52.90;;;-142.21;58.07;112049.66;5013342;28;20213;-72
2022/08/24 03:33:41;;;;;;;5.40;3.53;;;22.10;53.10;;;-142.21;58.61;112049.66;5032398;28;20297;-73
2022/08/24 03:36:09;;;;;;;4.47;3.80;;;22.00;53.80;;;-142.21;59.20;112049.66;5031749;28;20288;-72
2022/08/24 03:38:37;;;;;;;5.97;3.43;;;21.90;53.50;;;-142.21;59.97;112049.66;5032446;28;20206;-72
2022/08/24 03:41:05;;;;;;;4.60;3.50;;;21.90;53.50;;;-142.21;60.85;112049.66;5031698;28;20261;-72
2022/08/24 03:43:47;;;;;;;5.97;4.03;;;21.90;53.70;;;-142.21;60.34;112049.66;5031718;28;20226;-72
2022/08/24 03:46:20;;;;;;;4.23;3.40;;;21.80;53.60;;;-142.21;60.85;112049.66;5031477;28;20201;-72
2022/08/24 03:48:49;;;;;;;4.07;3.63;;;21.80;54.40;;;-142.21;61.04;112049.66;5032240;28;20194;-72
2022/08/24 03:51:19;;;;;;;5.40;3.70;;;21.80;53.90;;;-142.21;60.67;112049.66;5031621;28;20566;-72
2022/08/24 03:53:49;;;;;;;3.97;3.57;;;21.70;53.80;;;-142.21;59.98;112049.66;5032011;28;20614;-72
2022/08/24 03:56:17;;;;;;;4.67;4.27;;;21.70;54.20;;;-142.21;60.36;112049.66;5031285;28;20210;-72
2022/08/24 03:58:47;;;;;;;4.47;3.47;;;21.70;53.80;;;-142.21;60.35;112049.66;5031354;28;20238;-72
2022/08/24 04:01:16;;;;;;;3.83;3.20;;;21.50;53.80;;;-142.21;60.69;112049.66;5031802;28;20237;-73
2022/08/24 04:03:46;;;;;;;6.17;3.50;;;21.70;54.00;;;-142.21;60.80;112049.66;5032180;28;20571;-73
2022/08/24 04:06:16;;;;;;;6.63;3.63;;;21.60;54.00;;;-142.21;60.91;112049.66;5031721;28;20191;-73
2022/08/24 04:08:44;;;;;;;4.53;3.67;;;21.70;54.10;;;-142.21;61.08;112049.66;5031543;28;20671;-73
2022/08/24 04:11:16;;;;;;;5.73;3.37;;;21.70;54.20;;;-142.21;61.74;112049.66;5031212;28;20202;-72
2022/08/24 04:13:45;;;;;;;6.60;4.10;;;21.60;54.40;;;-142.21;62.13;112049.66;5050146;28;20263;-71
2022/08/24 04:16:16;;;;;;;6.63;3.87;;;21.60;54.60;;;-142.21;63.34;112049.66;5051341;28;20543;-72
2022/08/24 04:18:44;;;;;;;6.90;3.97;;;21.50;54.70;;;-142.21;63.22;112049.66;5051843;28;20281;-72
2022/08/24 04:21:19;;;;;;;5.53;3.60;;;21.50;54.80;;;-142.21;63.39;112049.66;5015899;28;20293;-71
2022/08/24 04:23:46;;;;;;;4.17;3.40;;;21.50;55.10;;;-142.21;64.23;112049.66;5051247;28;20697;-72
2022/08/24 04:26:17;;;;;;;4.27;3.47;;;21.50;55.10;;;-142.21;65.70;112049.66;5051064;28;20254;-72
2022/08/24 04:28:45;;;;;;;4.03;3.57;;;21.50;55.70;;;-142.21;66.05;112049.66;5051445;28;20227;-72
2022/08/24 04:31:13;;;;;;;4.33;3.80;;;21.40;55.70;;;-142.21;66.86;112049.66;5052714;28;20237;-73
2022/08/24 04:33:42;;;;;;;9.07;3.80;;;21.40;55.90;;;-142.21;65.56;112049.66;5055443;28;20241;-72
2022/08/24 04:36:11;;;;;;;3.77;3.37;;;21.30;55.70;;;-142.21;64.84;112049.66;5054786;28;20279;-72
2022/08/24 04:38:39;;;;;;;4.50;3.90;;;21.30;55.60;;;-142.21;66.41;112049.66;5055016;28;20202;-72
2022/08/24 04:41:11;;;;;;;8.23;4.10;;;21.30;55.80;;;-142.21;66.55;112049.66;5055095;28;20202;-72
2022/08/24 04:43:41;;;;;;;5.30;4.80;;;21.30;56.00;;;-142.21;67.92;112049.66;5055296;28;20214;-71
2022/08/24 04:46:09;;;;;;;6.93;4.43;;;21.20;56.40;;;-142.21;69.54;112049.66;5054939;28;20221;-71
2022/08/24 04:48:37;;;;;;;7.20;3.90;;;21.20;56.90;;;-142.21;68.55;112049.66;5055330;28;20206;-72
2022/08/24 04:51:06;;;;;;;5.00;4.47;;;21.10;56.80;;;-142.21;68.91;112049.66;5055127;28;20217;-71
2022/08/24 04:53:35;;;;;;;4.23;3.50;;;21.10;57.00;;;-142.21;69.18;112049.66;5055303;28;20567;-73
2022/08/24 04:56:12;;;;;;;5.27;4.03;;;21.10;57.10;;;-142.21;69.56;112049.66;5054827;28;20666;-72
2022/08/24 04:58:41;;;;;;;8.23;4.33;;;21.20;57.40;;;-142.21;70.31;112049.66;5054506;28;20713;-72
2022/08/24 05:01:13;;;;;;;4.97;3.90;;;21.10;57.60;;;-142.21;70.06;112049.66;5054276;28;20259;-72
2022/08/24 05:03:40;;;;;;;4.53;4.07;;;21.20;57.50;;;-142.21;71.50;112049.66;5055069;28;20608;-72
2022/08/24 05:06:07;;;;;;;7.77;4.10;;;21.20;57.80;;;-142.21;71.05;112049.66;5019140;28;20241;-72
2022/08/24 05:08:34;;;;;;;5.77;3.93;;;21.20;57.80;;;-142.21;70.29;112049.66;5054974;28;20241;-72
2022/08/24 05:11:07;;;;;;;3.50;3.20;;;21.20;57.60;;;-142.21;69.73;112049.66;5054488;28;20292;-72
2022/08/24 05:13:36;;;;;;;6.43;3.80;;;21.30;57.40;;;-142.21;69.07;112049.66;5054929;28;20194;-72
2022/08/24 05:16:12;;;;;;;4.97;3.63;;;21.30;57.20;;;-142.21;68.70;112049.66;5020464;28;20287;-72
2022/08/24 05:18:43;;;;;;;3.60;3.03;;;21.30;57.30;;;-142.21;67.47;112049.66;5054913;28;20343;-71
2022/08/24 05:21:13;;;;;;;4.00;3.60;;;21.30;56.70;;;-142.21;69.11;112049.66;5053742;28;20244;-72
2022/08/24 05:23:42;;;;;;;4.97;3.70;;;21.40;57.30;;;-142.21;68.82;112049.66;5054441;28;20304;-73
2022/08/24 05:26:13;;;;;;;4.00;3.60;;;21.40;57.20;;;-142.21;67.31;112049.66;5053564;28;20251;-71
2022/08/24 05:28:41;;;;;;;5.70;3.70;;;21.40;56.80;;;-142.21;67.42;112049.66;5055134;28;20194;-73
2022/08/24 05:31:14;;;;;;;3.57;3.27;;;21.50;56.90;;;-142.21;66.96;112049.66;5053665;28;20237;-72
2022/08/24 05:33:41;;;;;;;6.33;3.67;;;21.40;56.80;;;-142.21;66.16;112049.66;5054385;28;20635;-72
2022/08/24 05:36:19;;;;;;;5.30;3.63;;;21.60;56.50;;;-142.21;65.74;112049.66;5053603;28;20276;-72
2022/08/24 05:38:48;;;;;;;5.63;3.57;;;21.60;56.40;;;-142.21;66.64;112049.66;5054104;28;20201;-72
2022/08/24 05:41:16;;;;;;;5.03;3.57;;;21.70;56.50;;;-142.21;68.37;112049.66;5053245;28;20287;-70
2022/08/24 05:43:44;;;;;;;4.60;3.40;;;21.70;57.00;;;-142.21;68.21;112049.66;5054316;28;20261;-71
2022/08/24 05:46:15;;;;;;;5.63;3.40;;;21.70;57.00;;;-142.21;67.50;112049.66;5053462;28;20242;-73
2022/08/24 05:48:42;;;;;;;7.47;3.60;;;21.70;57.00;;;-142.21;67.80;112049.66;5054342;28;20230;-72
2022/08/24 05:51:11;;;;;;;9.37;3.83;;;21.80;56.70;;;-142.21;68.77;112049.66;5053242;28;20210;-72
2022/08/24 05:53:41;;;;;;;3.77;3.43;;;21.80;57.10;;;-142.21;69.00;112049.66;5053711;28;20666;-73
2022/08/24 05:56:13;;;;;;;5.60;4.07;;;21.90;57.20;;;-142.21;69.01;112049.66;5053757;28;20214;-72
2022/08/24 05:58:40;;;;;;;7.43;3.73;;;21.90;57.20;;;-142.21;69.02;112049.66;5053742;28;20328;-71
2022/08/24 06:01:10;;;;;;;5.13;3.47;;;22.00;57.20;;;-142.21;68.24;112049.66;5054042;28;20244;-72
2022/08/24 06:03:40;;;;;;;4.60;3.73;;;22.00;57.00;;;-142.21;67.77;112049.66;5053568;28;20278;-73
2022/08/24 06:06:09;;;;;;;6.73;3.50;;;22.00;56.90;;;-142.21;66.24;112049.66;5053886;28;20627;-72
2022/08/24 06:08:37;;;;;;;6.40;3.77;;;22.00;56.40;;;-142.21;66.72;112049.66;5053855;28;20201;-72
2022/08/24 06:11:05;;;;;;;4.13;3.23;;;22.10;56.50;;;-142.21;66.93;112049.66;5053827;28;20233;-72
2022/08/24 06:13:33;;;;;;;7.07;3.80;;;22.20;56.50;;;-142.21;66.43;112049.66;5053189;28;20256;-72
2022/08/24 06:16:08;;;;;;;4.90;3.30;;;22.20;56.50;;;-142.21;67.17;112049.66;5053726;28;20209;-72
2022/08/24 06:18:35;;;;;;;4.70;3.50;;;22.30;56.80;;;-142.21;65.88;112049.66;5054035;28;20189;-72
2022/08/24 06:21:10;;;;;;;5.73;3.70;;;22.30;56.20;;;-142.21;66.06;112049.66;5054766;28;20233;-71
2022/08/24 06:23:39;;;;;;;4.20;3.33;;;22.40;56.50;;;-142.21;66.46;112049.66;5054098;28;20235;-73
2022/08/24 06:28:53;;;;;;;4.33;3.50;;;22.50;56.60;;;-142.21;65.56;112049.66;5053796;28;20562;-73
2022/08/24 06:31:23;;;;;;;4.97;3.57;;;22.60;56.30;;;-142.21;64.99;112049.66;5054334;28;20263;-72
2022/08/24 06:33:50;;;;;;;4.27;3.60;;;22.70;56.10;;;-142.21;64.97;112049.66;5053923;28;20562;-72
2022/08/24 06:36:19;;;;;;;3.23;3.03;;;22.70;55.90;;;-142.21;64.13;112049.66;5054329;28;20257;-72
2022/08/24 06:38:46;;;;;;;4.93;3.60;;;22.90;55.90;;;-142.21;64.06;112049.66;5053872;28;20721;-72
2022/08/24 06:41:14;;;;;;;4.17;3.30;;;22.90;55.70;;;-142.21;64.21;112049.66;5065264;28;20202;-72
2022/08/24 06:43:41;;;;;;;4.20;3.07;;;23.10;55.80;;;-142.21;63.25;112049.66;5066809;28;20767;-72
2022/08/24 06:46:09;;;;;;;5.37;3.63;;;23.10;55.70;;;-142.21;63.56;112049.66;5058702;28;20236;-72
2022/08/24 06:48:36;;;;;;;3.33;3.03;;;23.20;55.50;;;-142.21;61.87;112049.66;5053157;28;20541;-72
2022/08/24 06:51:10;;;;;;;3.87;3.40;;;23.30;55.20;;;-142.21;61.78;112049.66;5053109;28;20209;-72
2022/08/24 06:53:40;;;;;;;5.00;3.27;;;23.40;55.20;;;-142.21;61.05;112049.66;5052302;28;20204;-71
2022/08/24 06:56:07;;;;;;;4.40;3.03;;;23.50;54.90;;;-142.21;60.32;112049.66;5052615;28;20666;-72
2022/08/24 06:58:36;;;;;;;5.13;2.93;;;23.60;54.80;;;-142.21;60.40;112049.66;5052104;28;20607;-71
2022/08/24 07:01:10;;;;;;;5.20;3.20;;;23.70;54.70;;;-142.21;60.41;112049.66;5052578;28;20666;-71
2022/08/24 07:03:37;;;;;;;3.33;2.70;;;23.80;54.80;;;-142.21;59.76;112049.66;5052492;28;20206;-72
2022/08/24 07:06:07;;;;;;;4.17;3.30;;;23.90;54.50;;;-142.21;59.80;112049.66;5052717;28;20205;-72
2022/08/24 07:08:35;;;;;;;3.70;3.07;;;24.00;54.50;;;-142.21;58.05;112049.66;5052187;28;20213;-72
2022/08/24 07:11:05;;;;;;;3.30;3.00;;;24.10;54.00;;;-142.21;56.95;112049.66;5052830;28;20295;-72
2022/08/24 07:13:33;;;;;;;4.03;3.33;;;24.20;53.80;;;-142.21;56.70;112049.66;5052317;28;20201;-72
2022/08/24 07:16:00;;;;;;;4.53;3.00;;;24.30;53.50;;;-142.21;56.77;112049.66;5052663;28;20616;-71
2022/08/24 07:18:28;;;;;;;6.03;3.13;;;24.40;53.70;;;-142.21;55.87;112049.66;5051979;28;20271;-71
2022/08/24 07:20:56;;;;;;;3.93;3.27;;;24.50;53.30;;;-142.21;56.01;112049.66;5052695;28;20205;-72
2022/08/24 07:23:24;;;;;;;5.37;2.80;;;24.50;53.10;;;-142.21;55.63;112049.66;5051972;28;20237;-72
2022/08/24 07:25:52;;;;;;;7.40;3.60;;;24.70;52.90;;;-142.21;56.39;112049.66;5052101;28;20263;-73
2022/08/24 07:28:21;;;;;;;4.20;2.73;;;24.80;53.20;;;-142.21;56.40;112049.66;5051475;28;20205;-73
2022/08/24 07:30:48;;;;;;;8.27;3.30;;;24.80;53.20;;;-142.21;55.28;112049.66;5052348;28;20205;-72
2022/08/24 07:33:16;;;;;;;5.93;3.30;;;24.90;52.90;;;-142.21;54.16;112049.66;5051308;28;20297;-72
2022/08/24 07:35:44;;;;;;;3.13;2.70;;;25.00;52.70;;;-142.21;54.77;112049.66;5051715;28;20209;-73
2022/08/24 07:38:13;;;;;;;4.93;3.00;;;25.10;52.70;;;-142.21;54.75;112049.66;5052327;28;20565;-72
2022/08/24 07:40:41;;;;;;;4.00;3.07;;;25.20;52.70;;;-142.21;53.40;112049.66;5051868;28;20209;-72
2022/08/24 07:43:08;;;;;;;5.00;2.40;;;25.30;52.20;;;-142.21;53.02;112049.66;5052123;28;20644;-72
2022/08/24 07:45:41;;;;;;;5.17;3.13;;;25.40;52.10;;;-142.21;51.83;112049.66;5051274;28;20209;-72
2022/08/24 07:48:09;;;;;;;3.57;2.80;;;25.50;51.60;;;-142.21;52.36;112049.66;5051972;28;20194;-72
2022/08/24 07:50:37;;;;;;;5.03;3.13;;;25.60;52.50;;;-142.21;52.41;112049.66;5051408;28;20205;-72
2022/08/24 07:53:04;;;;;;;4.70;3.30;;;25.70;51.60;;;-142.21;50.44;112049.66;5051863;28;20213;-73
2022/08/24 07:55:31;;;;;;;3.97;3.00;;;25.80;51.00;;;-142.21;50.17;112049.66;5051455;28;20233;-71
2022/08/24 07:57:59;;;;;;;4.20;3.13;;;25.90;50.90;;;-142.21;51.38;112049.66;5051460;28;20276;-71
2022/08/24 08:00:26;;;;;;;3.13;2.83;;;26.00;51.10;;;-142.21;50.45;112049.66;5051424;28;20212;-71
2022/08/24 08:02:55;;;;;;;3.53;2.87;;;26.10;51.00;;;-142.21;49.85;112049.66;5051480;28;20318;-71
2022/08/24 08:05:24;;;;;;;4.20;3.00;;;26.20;50.80;;;-142.21;50.60;112049.66;5054390;28;20201;-72
2022/08/24 08:07:52;;;;;;;4.13;3.07;;;26.30;51.60;;;-142.21;49.94;112049.66;5058359;28;20210;-72
2022/08/24 08:10:22;;;;;;;4.53;2.90;;;26.40;50.70;;;-142.21;53.18;112049.66;5058052;28;20212;-72
2022/08/24 08:12:49;;;;;;;6.33;3.17;;;26.40;51.50;;;-142.21;49.98;112049.66;5058142;28;20201;-71
2022/08/24 08:15:18;;;;;;;3.97;2.80;;;26.50;50.50;;;-142.21;48.44;112049.66;5057962;28;20210;-72
2022/08/24 08:17:45;;;;;;;4.43;2.90;;;26.60;50.20;;;-142.21;50.65;112049.66;5058501;28;20216;-72
2022/08/24 08:20:14;;;;;;;4.23;2.50;;;26.80;50.80;;;-142.21;49.94;112049.66;5058150;28;20262;-72
2022/08/24 08:25:41;;;;;;;3.87;2.77;;;27.00;50.10;;;-142.21;49.52;112049.66;5035659;28;20207;-72
2022/08/24 08:28:08;;;;;;;3.63;2.90;;;27.10;50.10;;;-142.21;48.63;112049.66;5035919;28;20573;-72
2022/08/24 08:30:36;;;;;;;3.87;2.80;;;27.20;49.80;;;-142.21;48.74;112049.66;5045119;28;20215;-72
2022/08/24 08:33:03;;;;;;;3.70;3.00;;;27.30;49.80;;;-142.21;47.68;112049.66;5058093;28;20211;-72
2022/08/24 08:35:32;;;;;;;4.23;2.50;;;27.40;49.50;;;-142.21;47.02;112049.66;5038906;28;20283;-73
2022/08/24 08:38:00;;;;;;;7.93;2.87;;;27.60;49.10;;;-142.21;46.17;112049.66;5058078;28;20210;-72
2022/08/24 08:40:54;;;;;;;2.60;2.40;;;27.70;49.20;;;-142.21;46.58;112049.66;5057424;28;20737;-73
2022/08/24 08:43:40;;;;;;;3.93;2.30;;;27.80;49.60;;;-142.21;42.70;112049.66;5057629;28;20330;-71
2022/08/24 08:46:34;;;;;;;2.70;2.40;;;27.90;47.60;;;-142.21;42.58;112049.66;5058431;28;20633;-72
2022/08/24 08:49:49;;;;;;;2.67;2.27;;;28.00;46.80;;;-142.21;44.49;112049.66;5057855;28;20209;-73
2022/08/24 08:53:05;;;;;;;3.50;2.40;;;28.20;48.20;;;-142.21;42.65;112049.66;5057924;28;20284;-71
2022/08/24 08:55:42;;;;;;;3.37;3.07;;;28.40;47.10;;;-142.21;41.32;112049.66;5032029;28;20205;-71
2022/08/24 08:58:49;;;;;;;5.10;2.47;;;28.50;46.70;;;-142.21;41.55;112049.66;5057797;28;20232;-71
2022/08/24 09:01:31;;;;;;;3.77;2.40;;;28.70;46.50;;;-142.21;41.11;112049.66;5057971;28;20212;-73
2022/08/24 09:04:47;;;;;;;3.73;2.37;;;28.80;46.30;;;-142.21;40.32;112049.66;5057680;28;20209;-73
2022/08/24 09:07:33;;;;;;;5.23;2.57;;;29.00;45.50;;;-142.21;38.39;112049.66;5045235;28;20219;-73
2022/08/24 09:10:28;;;;;;;2.53;2.30;;;29.10;44.20;;;-142.21;39.30;112049.66;5058120;28;20202;-72
2022/08/24 09:13:17;;;;;;;4.93;2.27;;;29.20;45.00;;;-142.21;37.18;112049.66;5057542;28;20244;-72
2022/08/24 09:16:18;;;;;;;3.13;2.37;;;29.30;43.20;;;-142.21;37.65;112049.66;5057620;28;20627;-72
2022/08/24 09:19:23;;;;;;;2.00;1.90;;;29.50;43.30;;;-142.21;37.38;112049.66;5051207;28;20220;-71
2022/08/24 09:22:11;;;;;;;2.87;2.27;;;29.70;43.00;;;-142.21;35.98;112049.66;5054456;28;20208;-71
2022/08/24 09:25:09;;;;;;;2.83;2.10;;;29.90;41.80;;;-142.21;36.38;112049.66;5054136;28;20216;-72
2022/08/24 09:28:00;;;;;;;3.63;2.10;;;30.00;41.60;;;-142.21;35.78;112049.66;5053818;28;20232;-73
2022/08/24 09:30:52;;;;;;;2.27;1.90;;;30.20;42.00;;;-142.21;34.10;112049.66;5053767;28;20241;-73
2022/08/24 09:33:27;;;;;;;3.43;2.20;;;30.30;40.50;;;-142.21;34.30;112049.66;5054502;28;20205;-72
2022/08/24 09:36:12;;;;;;;2.10;1.63;;;30.40;40.60;;;-142.21;34.27;112049.66;5054532;28;20225;-72
2022/08/24 09:39:13;;;;;;;5.50;1.90;;;30.60;39.90;;;-142.21;33.28;112049.66;5053085;28;20300;-72
2022/08/24 09:42:45;;;;;;;1.87;1.77;;;30.80;38.50;;;-142.21;34.07;112049.66;5020959;28;20244;-73
2022/08/24 09:45:43;;;;;;;2.33;1.90;;;30.90;39.30;;;-142.21;32.63;112049.66;5054006;28;20229;-72
2022/08/24 09:48:51;;;;;;;2.27;1.70;;;31.10;38.70;;;-142.21;33.29;112049.66;5054291;28;20561;-73
2022/08/24 09:52:09;;;;;;;2.20;1.87;;;31.20;38.30;;;-142.21;32.48;112049.66;5054034;28;20190;-73
2022/08/24 09:55:36;;;;;;;1.93;1.57;;;31.40;37.60;;;-142.21;32.77;112049.66;5053328;28;20190;-73
2022/08/24 09:58:23;;;;;;;3.70;1.80;;;31.50;37.70;;;-142.21;32.15;112049.66;5053746;28;20268;-73
2022/08/24 10:01:04;;;;;;;1.50;1.40;;;31.70;37.10;;;-142.21;32.10;112049.66;5053640;28;20658;-73
2022/08/24 10:03:55;;;;;;;2.20;2.00;;;31.80;37.10;;;-142.21;31.93;112049.66;5053188;28;20217;-72
2022/08/24 10:06:39;;;;;;;2.17;1.90;;;32.00;36.90;;;-142.21;31.20;112049.66;5053417;28;20240;-72
2022/08/24 10:09:53;;;;;;;2.43;1.67;;;32.00;36.30;;;-142.21;31.56;112049.66;5056715;28;20206;-74
2022/08/24 10:12:42;;;;;;;2.00;1.80;;;32.20;35.30;;;-142.21;32.02;112049.66;4996281;28;20199;-73
2022/08/24 10:15:20;;;;;;;2.47;1.80;;;32.30;36.60;;;-142.21;31.55;112049.66;4976136;28;20191;-72
2022/08/24 10:18:20;;;;;;;2.33;1.70;;;32.40;36.70;;;-142.21;32.61;112049.66;5018376;28;20214;-73
2022/08/24 10:21:07;;;;;;;1.73;1.60;;;32.50;36.60;;;-142.21;32.33;112049.66;5033275;28;20191;-73
2022/08/24 10:24:06;;;;;;;1.80;1.33;;;32.60;36.90;;;-142.21;30.78;112049.66;5032981;28;20241;-72
2022/08/24 10:26:55;;;;;;;2.90;1.93;;;32.70;34.90;;;-142.21;31.01;112049.66;5016139;28;20203;-73
2022/08/24 10:29:55;;;;;;;2.33;1.80;;;32.70;35.20;;;-142.21;31.61;112049.66;5032274;28;20215;-72
2022/08/24 10:32:50;;;;;;;3.03;1.70;;;32.80;35.90;;;-142.21;30.95;112049.66;5033550;28;20218;-74
2022/08/24 10:35:25;;;;;;;3.30;1.43;;;32.80;35.20;;;-142.21;30.36;112049.66;5033560;28;20199;-73